METAR AND TAF INFORMATION
METAR FOR KSLC
KSLC 130654Z 17006KT 10SM FEW150 FEW190 17/M01 A2989 RMK AO2 SLP073 T01721011 402720133
KSLC 130554Z 17009KT 10SM FEW130 SCT190 18/M01 A2988 RMK AO2 SLP071 T01831011 10256 20183 51015
KSLC 130454Z 16013G23KT 10SM SCT130 BKN180 21/M03 A2987 RMK AO2 PK WND 14027/0415 SLP065 T02061028
KSLC 130557Z 1306/1412 17011KT P6SM FEW120
FM131500 16014G24KT P6SM FEW250
FM140200 16012KT P6SM FEW250

 AIRPORT MAP

 RUNWAY INFORMATION
Runway 14 Runway length 4892 ft Runway width 150 ft
Runway elevation 4222 ft Runway displaced threshold 0 ft Runway heading 153
Runway 32 Runway length 4892 ft Runway width 150 ft
Runway elevation 4224 ft Runway displaced threshold 0 ft Runway heading 333
Runway 16L Runway length 12004 ft Runway width 150 ft
Runway elevation 4226 ft Runway displaced threshold 0 ft Runway heading 175
Runway 34R Runway length 12004 ft Runway width 150 ft
Runway elevation 4221 ft Runway displaced threshold 0 ft Runway heading 355
Runway 16R Runway length 12000 ft Runway width 150 ft
Runway elevation 4221 ft Runway displaced threshold 0 ft Runway heading 175
Runway 34L Runway length 12000 ft Runway width 150 ft
Runway elevation 4226 ft Runway displaced threshold 0 ft Runway heading 355
Runway 17 Runway length 9596 ft Runway width 150 ft
Runway elevation 4219 ft Runway displaced threshold 0 ft Runway heading 180
Runway 35 Runway length 9596 ft Runway width 150 ft
Runway elevation 4224 ft Runway displaced threshold 324 ft Runway heading 360

 AIRPORT FREQUENCIES
Type A/D Name APP/DEP Frequency 121.1 MHZ
Type ATIS Name ATIS Frequency 124.75 MHZ
Type CLD Name CLNC DEL Frequency 127.3 MHZ
Type GND Name GND Frequency 121.9 MHZ
Type OPS Name ANG OPS Frequency 30.3 MHZ
Type RDO Name CEDAR CITY Frequency 122.4 MHZ
Type TWR Name TWR Frequency 118.3 MHZ
Type UNIC Name UNICOM Frequency 122.95 MHZ

 AIRPORT NEAR NAVIGATION AIDS
Type VORTAC Name Wasatch Frequency 116800 KHZ

-